createdAt,value
2019-02-07T00:01:16.582Z,136.80
2019-02-07T00:03:45.286Z,128.13
2019-02-07T00:06:13.687Z,130.70
2019-02-07T00:08:42.067Z,127.20
2019-02-07T00:11:10.258Z,114.73
2019-02-07T00:13:38.726Z,112.20
2019-02-07T00:16:06.878Z,110.10
2019-02-07T00:18:35.084Z,99.17
2019-02-07T00:21:03.520Z,100.97
2019-02-07T00:23:31.853Z,100.60
2019-02-07T00:26:01.167Z,105.27
2019-02-07T00:28:29.558Z,103.33
2019-02-07T00:30:58.019Z,75.13
2019-02-07T00:33:26.647Z,64.90
2019-02-07T00:35:55.102Z,95.67
2019-02-07T00:38:23.570Z,94.33
2019-02-07T00:40:51.835Z,93.23
2019-02-07T00:43:19.995Z,95.43
2019-02-07T00:45:48.375Z,91.27
2019-02-07T00:48:16.559Z,90.03
2019-02-07T00:50:45.347Z,86.33
2019-02-07T00:53:13.746Z,93.37
2019-02-07T00:55:42.207Z,89.17
2019-02-07T00:58:10.610Z,98.67
2019-02-07T01:00:38.767Z,96.00
2019-02-07T01:03:07.215Z,98.67
2019-02-07T01:05:35.373Z,90.97
2019-02-07T01:08:04.107Z,88.53
2019-02-07T01:10:32.442Z,99.03
2019-02-07T01:13:00.598Z,86.03
2019-02-07T01:15:29.018Z,79.97
2019-02-07T01:17:57.239Z,86.10
2019-02-07T01:20:25.665Z,77.77
2019-02-07T01:22:54.363Z,77.40
2019-02-07T01:25:23.928Z,74.23
2019-02-07T01:27:53.600Z,76.57
2019-02-07T01:30:27.047Z,72.47
2019-02-07T01:32:55.491Z,67.47
2019-02-07T01:35:23.891Z,61.00
2019-02-07T01:37:52.543Z,76.87
2019-02-07T01:40:21.152Z,72.93
2019-02-07T01:42:49.546Z,73.63
2019-02-07T01:45:23.176Z,71.00
2019-02-07T01:47:51.678Z,77.10
2019-02-07T01:50:24.755Z,85.07
2019-02-07T01:52:53.419Z,72.00
2019-02-07T01:55:21.920Z,81.87
2019-02-07T01:57:50.384Z,75.33
2019-02-07T02:00:18.870Z,78.63
2019-02-07T02:02:47.308Z,75.40
2019-02-07T02:05:18.204Z,81.47
2019-02-07T02:07:47.120Z,83.63
2019-02-07T02:10:27.943Z,67.80
2019-02-07T02:12:56.362Z,70.77
2019-02-07T02:15:25.314Z,63.83
2019-02-07T02:17:53.643Z,55.33
2019-02-07T02:20:23.204Z,65.17
2019-02-07T02:22:51.524Z,60.20
2019-02-07T02:25:19.885Z,55.47
2019-02-07T02:27:48.263Z,62.80
2019-02-07T02:30:29.129Z,56.43
2019-02-07T02:32:57.285Z,47.73
2019-02-07T02:35:25.670Z,46.27
2019-02-07T02:37:53.863Z,48.70
2019-02-07T02:40:22.025Z,62.80
2019-02-07T02:42:50.166Z,56.00
2019-02-07T02:45:21.439Z,58.03
2019-02-07T02:47:49.831Z,56.20
2019-02-07T02:50:19.874Z,49.63
2019-02-07T02:52:48.623Z,53.03
2019-02-07T02:55:18.423Z,48.93
2019-02-07T02:57:46.620Z,44.70
2019-02-07T03:00:17.014Z,43.47
2019-02-07T03:03:02.062Z,45.13
2019-02-07T03:05:34.885Z,47.43
2019-02-07T03:08:10.707Z,43.53
2019-02-07T03:10:56.963Z,48.27
2019-02-07T03:13:26.761Z,44.53
2019-02-07T03:16:05.769Z,50.23
2019-02-07T03:18:38.920Z,46.90
2019-02-07T03:21:20.989Z,42.30
2019-02-07T03:23:54.064Z,40.50
2019-02-07T03:26:33.028Z,33.93
2019-02-07T03:29:08.988Z,31.50
2019-02-07T03:31:46.217Z,37.00
2019-02-07T03:34:16.251Z,33.83
2019-02-07T03:36:46.378Z,36.87
2019-02-07T03:39:19.198Z,36.10
2019-02-07T03:41:49.262Z,31.13
2019-02-07T03:44:19.600Z,34.70
2019-02-07T03:46:58.794Z,28.93
2019-02-07T03:49:45.321Z,34.13
2019-02-07T03:52:15.921Z,25.47
2019-02-07T03:54:48.903Z,29.50
2019-02-07T03:57:18.936Z,27.70
2019-02-07T03:59:54.701Z,30.47
2019-02-07T04:02:40.673Z,25.30
2019-02-07T04:05:17.519Z,30.47
2019-02-07T04:07:56.471Z,29.70
2019-02-07T04:10:26.539Z,23.37
2019-02-07T04:12:56.891Z,25.33
2019-02-07T04:15:29.667Z,23.27
2019-02-07T04:17:59.747Z,26.37
2019-02-07T04:20:46.129Z,24.90
2019-02-07T04:23:28.019Z,26.53
2019-02-07T04:26:13.940Z,25.37
2019-02-07T04:28:49.835Z,31.43
2019-02-07T04:31:22.704Z,30.10
2019-02-07T04:34:08.355Z,34.00
2019-02-07T04:36:38.147Z,30.20
2019-02-07T04:39:14.533Z,29.50
2019-02-07T04:41:47.125Z,29.63
2019-02-07T04:44:20.199Z,29.30
2019-02-07T04:46:55.873Z,29.27
2019-02-07T04:49:31.602Z,30.73
2019-02-07T04:52:13.735Z,27.83
2019-02-07T04:54:49.697Z,28.93
2019-02-07T04:57:34.652Z,31.27
2019-02-07T05:00:21.022Z,29.83
2019-02-07T05:02:51.040Z,29.07
2019-02-07T05:05:23.549Z,27.30
2019-02-07T05:08:02.560Z,27.33
2019-02-07T05:10:32.706Z,27.77
2019-02-07T05:13:11.663Z,32.83
2019-02-07T05:15:57.638Z,28.63
2019-02-07T05:18:44.142Z,34.30
2019-02-07T05:21:30.734Z,32.73
2019-02-07T05:24:09.777Z,34.03
2019-02-07T05:26:39.763Z,30.83
2019-02-07T05:29:12.700Z,33.43
2019-02-07T05:31:58.923Z,35.93
2019-02-07T05:34:30.435Z,38.47
2019-02-07T05:37:00.458Z,35.50
2019-02-07T05:39:46.695Z,38.53
2019-02-07T05:42:16.727Z,37.97
2019-02-07T05:45:05.632Z,43.87
2019-02-07T05:47:51.852Z,39.77
2019-02-07T05:50:38.084Z,38.50
2019-02-07T05:53:23.345Z,34.60
2019-02-07T05:55:53.411Z,39.90
2019-02-07T05:58:32.582Z,35.63
2019-02-07T06:01:05.381Z,36.67
2019-02-07T06:03:35.483Z,42.97
2019-02-07T06:06:11.371Z,38.93
2019-02-07T06:08:59.867Z,36.53
2019-02-07T06:11:38.866Z,41.43
2019-02-07T06:14:26.993Z,35.20
2019-02-07T06:17:02.746Z,39.40
2019-02-07T06:19:29.180Z,38.30
2019-02-07T06:21:59.239Z,40.00
2019-02-07T06:24:41.283Z,40.30
2019-02-07T06:27:14.201Z,56.90
2019-02-07T06:29:44.242Z,44.50
2019-02-07T06:32:14.373Z,48.37
2019-02-07T06:34:47.427Z,51.97
2019-02-07T06:37:18.467Z,55.27
2019-02-07T06:39:51.214Z,63.83
2019-02-07T06:42:23.982Z,60.03
2019-02-07T06:44:59.825Z,51.67
2019-02-07T06:47:29.887Z,48.20
2019-02-07T06:49:59.919Z,44.50
2019-02-07T06:52:39.020Z,54.87
2019-02-07T06:55:19.411Z,52.80
2019-02-07T06:57:55.559Z,56.13
2019-02-07T07:00:28.141Z,96.10
2019-02-07T07:03:13.231Z,123.00
2019-02-07T07:05:46.000Z,106.17
2019-02-07T07:08:16.239Z,88.03
2019-02-07T07:10:58.355Z,90.03
2019-02-07T07:13:34.398Z,80.03
2019-02-07T07:16:07.341Z,87.13
2019-02-07T07:18:42.892Z,92.80
2019-02-07T07:21:29.533Z,98.27
2019-02-07T07:24:14.337Z,122.27
2019-02-07T07:26:47.247Z,122.87
2019-02-07T07:29:32.435Z,146.30
2019-02-07T07:32:02.276Z,128.47
2019-02-07T07:34:32.344Z,137.07
2019-02-07T07:37:14.143Z,120.93
2019-02-07T07:39:45.243Z,117.97
2019-02-07T07:42:31.772Z,121.57
2019-02-07T07:45:07.947Z,106.43
2019-02-07T07:47:43.852Z,83.97
2019-02-07T07:50:31.199Z,82.10
2019-02-07T07:53:14.650Z,50.70
2019-02-07T07:55:44.727Z,58.77
2019-02-07T07:58:32.950Z,64.30
2019-02-07T08:01:05.917Z,82.77
2019-02-07T08:03:36.991Z,70.43
2019-02-07T08:06:10.152Z,63.93
2019-02-07T08:08:40.242Z,81.17
2019-02-07T08:11:26.722Z,74.10
2019-02-07T08:14:05.700Z,83.13
2019-02-07T08:16:38.771Z,81.30
2019-02-07T08:19:11.812Z,50.03
2019-02-07T08:21:41.902Z,52.33
2019-02-07T08:24:28.355Z,48.70
2019-02-07T08:27:01.232Z,52.53
2019-02-07T08:29:31.079Z,51.53
2019-02-07T08:32:17.909Z,51.53
2019-02-07T08:34:56.736Z,52.43
2019-02-07T08:37:33.110Z,52.20
2019-02-07T08:40:16.028Z,35.37
2019-02-07T08:43:01.995Z,40.30
2019-02-07T08:45:44.127Z,36.73
2019-02-07T08:48:14.210Z,36.53
2019-02-07T08:50:44.637Z,42.23
2019-02-07T08:53:26.647Z,49.00
2019-02-07T08:56:02.520Z,46.70
2019-02-07T08:58:48.915Z,47.13
2019-02-07T09:01:22.107Z,51.03
2019-02-07T09:04:08.251Z,52.00
2019-02-07T09:06:54.426Z,42.40
2019-02-07T09:09:27.376Z,53.87
2019-02-07T09:11:57.558Z,63.23
2019-02-07T09:14:44.387Z,66.63
2019-02-07T09:17:30.742Z,57.63
2019-02-07T09:20:15.983Z,51.03
2019-02-07T09:23:02.437Z,54.63
2019-02-07T09:25:48.139Z,45.13
2019-02-07T09:28:33.289Z,45.70
2019-02-07T09:31:03.545Z,41.00
2019-02-07T09:33:39.687Z,45.90
2019-02-07T09:36:10.217Z,51.73
2019-02-07T09:38:42.977Z,59.97
2019-02-07T09:41:14.447Z,63.70
2019-02-07T09:43:56.714Z,80.90
2019-02-07T09:46:42.935Z,54.13
2019-02-07T09:49:19.641Z,63.87
2019-02-07T09:52:02.406Z,69.70
2019-02-07T09:54:47.782Z,60.57
2019-02-07T09:57:28.568Z,51.17
2019-02-07T10:00:07.505Z,77.03
2019-02-07T10:02:41.230Z,44.83
2019-02-07T10:05:18.864Z,39.23
2019-02-07T10:07:51.776Z,36.37
2019-02-07T10:10:22.038Z,29.83
2019-02-07T10:12:55.079Z,21.10
2019-02-07T10:15:43.731Z,29.60
2019-02-07T10:18:32.724Z,17.43
2019-02-07T10:21:00.188Z,21.93
2019-02-07T10:23:39.723Z,22.47
2019-02-07T10:26:26.223Z,26.90
2019-02-07T10:29:10.041Z,22.37
2019-02-07T10:31:43.865Z,21.60
2019-02-07T10:34:20.394Z,24.97
2019-02-07T10:36:59.276Z,20.73
2019-02-07T10:39:35.233Z,28.40
2019-02-07T10:42:15.646Z,25.73
2019-02-07T10:44:48.548Z,28.30
2019-02-07T10:47:30.388Z,27.10
2019-02-07T10:49:59.686Z,27.07
2019-02-07T10:52:42.528Z,25.53
2019-02-07T10:55:19.040Z,22.63
2019-02-07T10:57:50.587Z,21.83
2019-02-07T11:00:22.375Z,26.83
2019-02-07T11:03:12.675Z,25.27
2019-02-07T11:05:45.546Z,27.13
2019-02-07T11:08:22.265Z,24.37
2019-02-07T11:11:08.785Z,21.97
2019-02-07T11:13:44.852Z,22.97
2019-02-07T11:16:26.840Z,21.63
2019-02-07T11:19:20.708Z,18.87
2019-02-07T11:21:43.058Z,23.00
2019-02-07T11:24:19.300Z,22.83
2019-02-07T11:26:50.968Z,33.57
2019-02-07T11:29:23.969Z,30.33
2019-02-07T11:32:00.222Z,25.80
2019-02-07T11:34:46.077Z,27.80
2019-02-07T11:37:28.821Z,20.80
2019-02-07T11:40:04.589Z,18.70
2019-02-07T11:42:51.160Z,22.33
2019-02-07T11:45:29.760Z,18.87
2019-02-07T11:48:02.898Z,19.20
2019-02-07T11:50:51.472Z,20.07
2019-02-07T11:53:21.847Z,20.87
2019-02-07T11:56:01.438Z,19.07
2019-02-07T11:58:37.596Z,17.50
2019-02-07T12:01:17.711Z,31.60
2019-02-07T12:03:56.859Z,17.37
2019-02-07T12:06:33.012Z,36.07
2019-02-07T12:09:18.321Z,19.83
2019-02-07T12:11:57.250Z,20.83
2019-02-07T12:14:27.270Z,17.27
2019-02-07T12:16:57.689Z,18.50
2019-02-07T12:19:37.057Z,17.07
2019-02-07T12:22:07.075Z,14.90
2019-02-07T12:24:40.145Z,16.77
2019-02-07T12:27:22.020Z,15.70
2019-02-07T12:30:02.105Z,18.57
2019-02-07T12:32:40.490Z,21.57
2019-02-07T12:35:21.620Z,19.50
2019-02-07T12:38:06.491Z,17.40
2019-02-07T12:40:57.432Z,21.23
2019-02-07T12:43:36.076Z,19.50
2019-02-07T12:46:12.252Z,15.87
2019-02-07T12:48:54.156Z,20.60
2019-02-07T12:51:29.752Z,19.83
2019-02-07T12:54:04.606Z,20.07
2019-02-07T12:56:47.904Z,17.53
2019-02-07T12:59:25.728Z,22.60
2019-02-07T13:02:03.864Z,21.27
2019-02-07T13:04:37.051Z,22.70
2019-02-07T13:07:07.063Z,17.73
2019-02-07T13:09:53.439Z,24.53
2019-02-07T13:12:25.675Z,21.07
2019-02-07T13:15:11.868Z,18.90
2019-02-07T13:17:42.126Z,16.03
2019-02-07T13:20:17.135Z,16.93
2019-02-07T13:22:50.167Z,18.97
2019-02-07T13:25:20.100Z,17.83
2019-02-07T13:27:56.615Z,14.47
2019-02-07T13:30:42.626Z,20.77
2019-02-07T13:33:15.568Z,18.57
2019-02-07T13:35:54.460Z,17.97
2019-02-07T13:38:30.386Z,18.03
2019-02-07T13:41:16.506Z,35.20
2019-02-07T13:43:52.663Z,30.77
2019-02-07T13:46:38.726Z,40.53
2019-02-07T13:49:09.630Z,42.23
2019-02-07T13:52:00.023Z,30.57
2019-02-07T13:54:42.304Z,225.63
2019-02-07T13:57:15.856Z,25.20
2019-02-07T13:59:55.418Z,22.10
2019-02-07T14:02:29.620Z,18.90
2019-02-07T14:05:15.719Z,27.57
2019-02-07T14:07:50.539Z,35.73
2019-02-07T14:10:26.716Z,36.70
2019-02-07T14:12:57.232Z,38.97
2019-02-07T14:15:35.868Z,20.67
2019-02-07T14:18:05.998Z,23.33
2019-02-07T14:21:02.998Z,31.47
2019-02-07T14:23:47.821Z,26.37
2019-02-07T14:26:20.963Z,39.37
2019-02-07T14:29:07.407Z,106.77
2019-02-07T14:31:55.533Z,62.37
2019-02-07T14:34:42.140Z,66.90
2019-02-07T14:37:15.414Z,89.90
2019-02-07T14:40:03.543Z,149.80
2019-02-07T14:42:47.858Z,255.47
2019-02-07T14:45:23.327Z,549.13
2019-02-07T14:47:51.636Z,471.30
2019-02-07T14:50:20.858Z,195.93
2019-02-07T14:52:49.804Z,252.20
2019-02-07T14:55:20.362Z,94.77
2019-02-07T14:57:48.844Z,149.93
2019-02-07T15:00:20.798Z,150.90
2019-02-07T15:02:49.003Z,296.23
2019-02-07T15:05:18.185Z,129.03
2019-02-07T15:07:46.850Z,97.73
2019-02-07T15:10:19.828Z,94.07
2019-02-07T15:12:48.684Z,67.50
2019-02-07T15:15:21.300Z,73.93
2019-02-07T15:17:50.798Z,104.73
2019-02-07T15:20:26.095Z,166.27
2019-02-07T15:22:57.594Z,151.73
2019-02-07T15:25:25.804Z,139.40
2019-02-07T15:27:54.432Z,156.33
2019-02-07T15:30:28.108Z,209.80
2019-02-07T15:32:55.457Z,281.80
2019-02-07T15:35:25.392Z,275.50
2019-02-07T15:38:12.293Z,270.07
2019-02-07T15:40:43.763Z,369.97
2019-02-07T15:43:12.453Z,243.43
2019-02-07T15:45:40.615Z,296.60
2019-02-07T15:48:09.317Z,258.63
2019-02-07T15:50:40.169Z,370.50
2019-02-07T15:53:10.255Z,341.97
2019-02-07T15:55:42.442Z,324.20
2019-02-07T15:58:12.135Z,309.40
2019-02-07T16:01:02.083Z,349.17
2019-02-07T16:03:35.963Z,349.73
2019-02-07T16:06:13.149Z,333.10
2019-02-07T16:08:41.810Z,263.90
2019-02-07T16:11:12.355Z,227.43
2019-02-07T16:13:41.562Z,234.47
2019-02-07T16:16:10.021Z,226.83
2019-02-07T16:18:38.370Z,228.67
2019-02-07T16:21:06.565Z,265.60
2019-02-07T16:23:35.321Z,282.17
2019-02-07T16:26:03.546Z,261.33
2019-02-07T16:28:32.006Z,308.13
2019-02-07T16:31:00.521Z,340.33
2019-02-07T16:33:28.761Z,471.33
2019-02-07T16:35:57.224Z,421.03
2019-02-07T16:38:25.797Z,425.17
2019-02-07T16:40:54.257Z,402.87
2019-02-07T16:43:23.474Z,317.93
2019-02-07T16:45:51.847Z,297.10
2019-02-07T16:48:20.523Z,331.40
2019-02-07T16:50:59.642Z,307.37
2019-02-07T16:53:18.637Z,308.83
2019-02-07T16:55:48.164Z,301.80
2019-02-07T16:58:16.328Z,283.63
2019-02-07T17:00:44.594Z,295.90
2019-02-07T17:03:12.981Z,301.87
2019-02-07T17:05:41.648Z,274.37
2019-02-07T17:08:10.135Z,260.97
2019-02-07T17:10:40.604Z,248.50
2019-02-07T17:13:12.460Z,256.17
2019-02-07T17:15:41.167Z,309.43
2019-02-07T17:18:09.788Z,288.77
2019-02-07T17:20:37.911Z,284.20
2019-02-07T17:23:06.404Z,341.03
2019-02-07T17:25:34.574Z,355.60
2019-02-07T17:28:03.286Z,500.10
2019-02-07T17:30:32.066Z,397.10
2019-02-07T17:33:00.669Z,269.27
2019-02-07T17:35:29.099Z,257.67
2019-02-07T17:37:57.319Z,278.57
2019-02-07T17:40:26.209Z,510.70
2019-02-07T17:42:54.325Z,455.53
2019-02-07T17:45:27.649Z,415.67
2019-02-07T17:47:56.122Z,432.30
2019-02-07T17:50:32.272Z,423.40
2019-02-07T17:53:01.301Z,447.90
2019-02-07T17:55:29.626Z,478.03
2019-02-07T17:57:58.728Z,404.50
2019-02-07T18:00:36.047Z,459.03
2019-02-07T18:03:04.329Z,485.17
2019-02-07T18:05:32.932Z,387.10
2019-02-07T18:08:01.342Z,536.47
2019-02-07T18:10:29.724Z,586.80
2019-02-07T18:12:58.683Z,490.43
2019-02-07T18:15:27.240Z,440.60
2019-02-07T18:17:55.470Z,486.57
2019-02-07T18:20:23.646Z,481.17
2019-02-07T18:22:51.885Z,476.10
2019-02-07T18:25:20.255Z,479.73
2019-02-07T18:27:48.402Z,479.03
2019-02-07T18:30:18.026Z,556.43
2019-02-07T18:32:47.485Z,358.93
2019-02-07T18:35:16.397Z,45.63
2019-02-07T18:37:44.553Z,44.70
2019-02-07T18:40:19.265Z,33.07
2019-02-07T18:42:47.728Z,27.77
2019-02-07T18:45:18.108Z,24.67
2019-02-07T18:47:46.319Z,22.43
2019-02-07T18:50:21.158Z,31.03
2019-02-07T18:52:49.743Z,27.63
2019-02-07T18:55:18.612Z,28.70
2019-02-07T18:57:46.766Z,27.20
2019-02-07T19:00:22.224Z,27.83
2019-02-07T19:02:51.416Z,34.00
2019-02-07T19:05:20.688Z,31.30
2019-02-07T19:07:49.309Z,34.03
2019-02-07T19:10:21.190Z,42.83
2019-02-07T19:12:50.093Z,60.20
2019-02-07T19:15:34.358Z,56.30
2019-02-07T19:18:02.972Z,24.93
2019-02-07T19:20:31.400Z,35.63
2019-02-07T19:23:00.138Z,41.03
2019-02-07T19:25:28.687Z,28.23
2019-02-07T19:27:58.103Z,24.80
2019-02-07T19:30:31.855Z,26.03
2019-02-07T19:33:00.817Z,30.83
2019-02-07T19:35:29.450Z,56.90
2019-02-07T19:37:58.389Z,67.73
2019-02-07T19:40:27.007Z,52.37
2019-02-07T19:42:56.119Z,39.13
2019-02-07T19:45:28.639Z,144.20
2019-02-07T19:47:58.863Z,178.17
2019-02-07T19:50:28.231Z,161.77
2019-02-07T19:52:57.290Z,127.07
2019-02-07T19:55:32.863Z,159.47
2019-02-07T19:58:02.019Z,185.80
2019-02-07T20:00:39.341Z,111.50
2019-02-07T20:03:08.779Z,110.97
2019-02-07T20:05:39.107Z,129.37
2019-02-07T20:08:08.183Z,178.50
2019-02-07T20:10:38.954Z,179.43
2019-02-07T20:13:07.939Z,199.53
2019-02-07T20:15:39.106Z,190.27
2019-02-07T20:18:08.882Z,184.13
2019-02-07T20:20:37.495Z,218.33
2019-02-07T20:23:06.261Z,224.80
2019-02-07T20:25:34.773Z,237.07
2019-02-07T20:28:03.523Z,269.20
2019-02-07T20:30:43.445Z,361.63
2019-02-07T20:33:16.967Z,430.87
2019-02-07T20:35:45.655Z,304.97
2019-02-07T20:38:14.333Z,259.73
2019-02-07T20:40:43.110Z,279.63
2019-02-07T20:43:11.525Z,280.23
2019-02-07T20:45:40.196Z,276.80
2019-02-07T20:48:08.778Z,238.60
2019-02-07T20:50:37.416Z,54.97
2019-02-07T20:53:08.079Z,27.93
2019-02-07T20:55:36.650Z,58.03
2019-02-07T20:58:05.550Z,31.80
2019-02-07T21:00:36.285Z,27.80
2019-02-07T21:03:05.363Z,24.23
2019-02-07T21:05:35.468Z,22.57
2019-02-07T21:08:04.179Z,26.97
2019-02-07T21:10:37.702Z,24.20
2019-02-07T21:13:06.911Z,25.63
2019-02-07T21:15:35.818Z,23.60
2019-02-07T21:18:05.099Z,25.67
2019-02-07T21:20:33.879Z,24.37
2019-02-07T21:23:02.638Z,30.83
2019-02-07T21:25:34.411Z,48.70
2019-02-07T21:28:03.045Z,155.63
2019-02-07T21:30:32.643Z,195.50
2019-02-07T21:33:01.110Z,205.03
2019-02-07T21:35:29.864Z,208.93
2019-02-07T21:37:58.371Z,215.23
2019-02-07T21:40:28.908Z,198.87
2019-02-07T21:42:58.650Z,185.70
2019-02-07T21:45:27.163Z,172.40
2019-02-07T21:47:56.203Z,177.63
2019-02-07T21:50:26.773Z,171.93
2019-02-07T21:52:55.327Z,169.53
2019-02-07T21:55:26.085Z,189.73
2019-02-07T21:57:54.670Z,233.83
2019-02-07T22:00:25.992Z,209.23
2019-02-07T22:02:55.427Z,184.23
2019-02-07T22:05:24.455Z,187.50
2019-02-07T22:07:54.428Z,193.90
2019-02-07T22:10:23.266Z,211.90
2019-02-07T22:12:51.808Z,206.17
2019-02-07T22:15:25.727Z,202.90
2019-02-07T22:17:54.320Z,196.77
2019-02-07T22:20:27.494Z,191.80
2019-02-07T22:22:56.879Z,188.47
2019-02-07T22:25:25.457Z,183.97
2019-02-07T22:27:53.847Z,177.83
2019-02-07T22:30:34.749Z,182.83
2019-02-07T22:33:03.798Z,188.77
2019-02-07T22:35:32.482Z,181.67
2019-02-07T22:38:01.393Z,181.67
2019-02-07T22:40:30.467Z,169.60
2019-02-07T22:43:00.417Z,187.87
2019-02-07T22:45:30.692Z,167.03
2019-02-07T22:47:59.274Z,230.67
2019-02-07T22:50:30.286Z,171.97
2019-02-07T22:53:00.564Z,133.13
2019-02-07T22:55:29.284Z,114.00
2019-02-07T22:57:57.822Z,95.57
2019-02-07T23:00:34.490Z,92.63
2019-02-07T23:03:05.317Z,94.97
2019-02-07T23:05:33.850Z,87.53
2019-02-07T23:08:02.996Z,91.37
2019-02-07T23:10:32.367Z,90.73
2019-02-07T23:13:01.277Z,84.30
2019-02-07T23:15:29.734Z,65.07
2019-02-07T23:17:58.308Z,70.60
2019-02-07T23:20:26.860Z,101.50
2019-02-07T23:22:55.799Z,108.67
2019-02-07T23:25:24.266Z,107.30
2019-02-07T23:27:52.671Z,108.17
2019-02-07T23:30:21.180Z,105.67
2019-02-07T23:32:49.583Z,131.20
2019-02-07T23:35:17.974Z,120.43
2019-02-07T23:37:46.420Z,84.57
2019-02-07T23:40:20.896Z,82.60
2019-02-07T23:42:49.571Z,79.50
2019-02-07T23:45:20.905Z,69.43
2019-02-07T23:47:49.303Z,69.90
2019-02-07T23:50:17.769Z,58.87
2019-02-07T23:52:46.288Z,56.07
2019-02-07T23:55:15.535Z,55.47
2019-02-07T23:57:43.923Z,48.67
